CYKJ

Key Lake Airport

Key Lake, Saskatchewan, Canada
METAR CYKJ 092100Z AUTO 25005KT 9SM CLR M04/M07 A2988 RMK SLP156
Observed Flight Rules
Dec-9 @ 21:00 UTC (40 minutes ago) Visual Flight Rules
Wind Visibility Clouds
250° at 5 knots 9 miles
  • Clear skies
Temperatures Readings
Current -4°C / 25°F
Dewpoint -7°C / 19°F
Humidity 80%
Altimeter 29.88" Hg
Pressure 1015.6 hPa
Elevation 509
METAR CYKJ 092100Z AUTO 25005KT 9SM CLR M04/M07 A2988 RMK SLP156
Observed Flight Rules
Dec-9 @ 21:00 UTC
(40 minutes ago)
VFR
Wind Visibility
250° at 5 knots 9 miles
Clouds
  • Clear skies
Temperature Dewpoint
-4°C / 25°F -7°C / 19°F
Humidity Altimeter Pressure
80% 29.88" Hg 1015.6 hPa